Time;durP1;ratioP1;P1;durP2;ratioP2;P2;SDS_P1;SDS_P2;PMS_P1;PMS_P2;Temp;Humidity;BMP_temperature;BMP_pressure;BME280_temperature;BME280_humidity;BME280_pressure;Samples;Min_cycle;Max_cycle;Signal;HPM_P1;HPM_P2
2022/08/02 00:00:33;;;;;;;0.00;0.00;;;13.20;99.90;;;;;;5000874;28;21040;-77
2022/08/02 00:03:01;;;;;;;0.00;0.00;;;13.20;99.90;;;;;;5001220;28;20910;-75
2022/08/02 00:05:30;;;;;;;0.00;0.00;;;13.10;99.90;;;;;;5001595;28;20999;-79
2022/08/02 00:07:59;;;;;;;0.00;0.00;;;13.10;99.90;;;;;;5001211;28;20458;-76
2022/08/02 00:10:31;;;;;;;0.00;0.00;;;13.10;99.90;;;;;;4998888;28;20516;-76
2022/08/02 00:12:59;;;;;;;0.00;0.00;;;13.00;99.90;;;;;;5000766;28;20961;-77
2022/08/02 00:15:27;;;;;;;0.00;0.00;;;13.00;99.90;;;;;;4999767;28;20438;-78
2022/08/02 00:17:55;;;;;;;0.00;0.00;;;13.00;99.90;;;;;;4998843;28;20509;-76
2022/08/02 00:20:23;;;;;;;0.00;0.00;;;13.00;99.90;;;;;;4999182;28;20924;-76
2022/08/02 00:22:52;;;;;;;0.00;0.00;;;13.00;99.90;;;;;;4998942;28;20544;-76
2022/08/02 00:25:20;;;;;;;0.00;0.00;;;13.00;99.90;;;;;;4999495;28;20738;-76
2022/08/02 00:27:48;;;;;;;0.00;0.00;;;13.00;99.90;;;;;;4999259;28;20999;-76
2022/08/02 00:30:16;;;;;;;0.00;0.00;;;13.00;99.90;;;;;;4998808;28;20503;-77
2022/08/02 00:32:44;;;;;;;0.00;0.00;;;12.90;99.90;;;;;;5001261;28;20446;-76
2022/08/02 00:35:12;;;;;;;0.00;0.00;;;12.90;99.90;;;;;;5000881;28;20456;-78
2022/08/02 00:37:40;;;;;;;0.00;0.00;;;12.90;99.90;;;;;;5001667;28;20465;-77
2022/08/02 00:40:11;;;;;;;0.00;0.00;;;12.90;99.90;;;;;;5000997;28;20446;-77
2022/08/02 00:42:40;;;;;;;0.00;0.00;;;12.90;99.90;;;;;;5000515;28;20535;-76
2022/08/02 00:45:08;;;;;;;0.00;0.00;;;12.80;99.90;;;;;;5003186;28;20544;-80
2022/08/02 00:47:36;;;;;;;0.00;0.00;;;12.80;99.90;;;;;;5008570;28;20558;-78
2022/08/02 00:50:05;;;;;;;0.00;0.00;;;12.80;99.90;;;;;;5010125;28;20848;-88
2022/08/02 00:52:33;;;;;;;0.00;0.00;;;12.80;99.90;;;;;;5008618;28;20957;-87
2022/08/02 00:55:05;;;;;;;0.00;0.00;;;12.70;99.90;;;;;;5013543;28;20956;-87
2022/08/02 00:57:35;;;;;;;0.00;0.00;;;12.60;99.90;;;;;;5021349;28;20478;-87
2022/08/02 01:00:05;;;;;;;0.00;0.00;;;12.60;99.90;;;;;;5022351;28;20658;-88
2022/08/02 01:02:34;;;;;;;0.00;0.00;;;12.60;99.90;;;;;;5024212;28;20434;-87
2022/08/02 01:05:03;;;;;;;0.00;0.00;;;12.60;99.90;;;;;;5024703;28;20602;-87
2022/08/02 01:07:31;;;;;;;0.00;0.00;;;12.60;99.90;;;;;;5025855;28;20462;-88
2022/08/02 01:10:00;;;;;;;0.00;0.00;;;12.60;99.90;;;;;;5010031;28;20774;-87
2022/08/02 01:12:28;;;;;;;0.00;0.00;;;12.60;99.90;;;;;;5009675;28;20524;-83
2022/08/02 01:15:01;;;;;;;0.00;0.00;;;12.60;99.90;;;;;;5011019;28;20518;-84
2022/08/02 01:17:36;;;;;;;0.00;0.00;;;12.50;99.90;;;;;;5013216;28;20478;-84
2022/08/02 01:20:13;;;;;;;0.00;0.00;;;12.50;99.90;;;;;;5013670;28;20462;-84
2022/08/02 01:23:02;;;;;;;0.00;0.00;;;12.50;99.90;;;;;;5016828;28;20453;-85
2022/08/02 01:25:53;;;;;;;0.00;0.00;;;12.50;99.90;;;;;;5016446;28;20446;-84
2022/08/02 01:28:35;;;;;;;0.00;0.00;;;12.50;99.90;;;;;;5013720;28;20707;-84
2022/08/02 01:31:10;;;;;;;0.00;0.00;;;12.50;99.90;;;;;;5022849;28;20559;-84
2022/08/02 01:33:44;;;;;;;0.00;0.00;;;12.50;99.90;;;;;;5037116;28;20602;-84
2022/08/02 01:36:17;;;;;;;0.00;0.00;;;12.50;99.90;;;;;;5034079;28;20449;-87
2022/08/02 01:38:53;;;;;;;0.00;0.00;;;12.50;99.90;;;;;;5030886;28;20473;-84
2022/08/02 01:41:24;;;;;;;0.00;0.00;;;12.50;99.90;;;;;;5030768;28;21198;-88
2022/08/02 01:43:58;;;;;;;0.00;0.00;;;12.40;99.90;;;;;;5034668;28;20527;-86
2022/08/02 01:46:28;;;;;;;0.00;0.00;;;12.40;99.90;;;;;;5034761;28;20758;-85
2022/08/02 01:49:00;;;;;;;0.00;0.00;;;12.30;99.90;;;;;;5042297;28;20473;-85
2022/08/02 01:54:31;;;;;;;0.00;0.00;;;12.30;99.90;;;;;;4989040;28;20574;-81
2022/08/02 01:57:00;;;;;;;0.00;0.00;;;12.30;99.90;;;;;;5002501;28;20779;-80
2022/08/02 01:59:32;;;;;;;0.00;0.00;;;12.30;99.90;;;;;;5003529;28;20464;-81
2022/08/02 02:02:01;;;;;;;0.00;0.00;;;12.30;99.90;;;;;;5002094;28;20449;-80
2022/08/02 02:04:31;;;;;;;0.00;0.00;;;12.30;99.90;;;;;;5001926;28;20445;-80
2022/08/02 02:07:01;;;;;;;0.00;0.00;;;12.20;99.90;;;;;;5000972;28;20726;-81
2022/08/02 02:09:31;;;;;;;0.00;0.00;;;12.20;99.90;;;;;;5000918;28;20460;-79
2022/08/02 02:12:00;;;;;;;0.00;0.00;;;12.20;99.90;;;;;;5000627;28;20474;-80
2022/08/02 02:14:43;;;;;;;0.00;0.00;;;12.10;99.90;;;;;;5001121;28;20458;-80
2022/08/02 02:23:48;;;;;;;0.00;0.00;;;12.00;99.90;;;;;;5030954;28;20449;-78
2022/08/02 02:26:19;;;;;;;0.00;0.00;;;11.90;99.90;;;;;;5039935;28;20452;-80
2022/08/02 02:29:01;;;;;;;0.00;0.00;;;11.90;99.90;;;;;;5039581;28;21160;-80
2022/08/02 02:31:35;;;;;;;0.00;0.00;;;12.00;99.90;;;;;;5029906;28;21027;-80
2022/08/02 02:34:05;;;;;;;0.00;0.00;;;12.00;99.90;;;;;;5022730;28;20800;-80
2022/08/02 02:36:34;;;;;;;0.00;0.00;;;12.00;99.90;;;;;;5023528;28;20448;-79
2022/08/02 02:39:05;;;;;;;0.00;0.00;;;12.00;99.90;;;;;;5023252;28;20732;-80
2022/08/02 02:41:41;;;;;;;0.00;0.00;;;11.90;99.90;;;;;;5029997;28;20444;-80
2022/08/02 02:44:13;;;;;;;0.00;0.00;;;11.90;99.90;;;;;;5029380;28;20463;-78
2022/08/02 02:46:43;;;;;;;0.00;0.00;;;11.80;99.90;;;;;;5027085;28;20449;-77
2022/08/02 02:49:12;;;;;;;0.00;0.00;;;11.80;99.90;;;;;;5026914;28;20749;-77
2022/08/02 02:51:41;;;;;;;0.00;0.00;;;11.70;99.90;;;;;;5025887;28;21065;-78
2022/08/02 02:54:12;;;;;;;0.00;0.00;;;11.70;99.90;;;;;;5026786;28;20515;-73
2022/08/02 02:57:02;;;;;;;0.00;0.00;;;11.70;99.90;;;;;;5021981;28;20441;-80
2022/08/02 02:59:30;;;;;;;0.00;0.00;;;11.80;99.90;;;;;;5033653;28;20444;-80
2022/08/02 03:02:00;;;;;;;0.00;0.00;;;11.80;99.90;;;;;;5050761;28;20413;-79
2022/08/02 03:04:31;;;;;;;0.00;0.00;;;11.80;99.90;;;;;;5049756;28;20964;-82
2022/08/02 03:07:19;;;;;;;0.00;0.00;;;11.90;99.90;;;;;;5046171;28;20464;-81
2022/08/02 03:09:47;;;;;;;0.00;0.00;;;11.90;99.90;;;;;;5043894;28;20436;-79
2022/08/02 03:12:23;;;;;;;0.00;0.00;;;11.90;99.90;;;;;;5044511;28;20773;-80
2022/08/02 03:14:58;;;;;;;0.00;0.00;;;11.90;99.90;;;;;;5063187;28;20478;-86
2022/08/02 03:17:37;;;;;;;0.00;0.00;;;11.90;99.90;;;;;;5059161;28;20456;-84
2022/08/02 03:20:09;;;;;;;0.00;0.00;;;11.90;99.90;;;;;;5047311;28;20455;-84
2022/08/02 03:22:37;;;;;;;0.00;0.00;;;11.90;99.90;;;;;;5046644;28;20475;-83
2022/08/02 03:25:06;;;;;;;0.00;0.00;;;11.90;99.90;;;;;;5046050;28;20542;-85
2022/08/02 03:27:34;;;;;;;0.00;0.00;;;11.90;99.90;;;;;;5045368;28;20838;-84
2022/08/02 03:30:03;;;;;;;0.00;0.00;;;12.00;99.90;;;;;;5046821;28;20647;-83
2022/08/02 03:32:32;;;;;;;0.00;0.00;;;12.00;99.90;;;;;;5049150;28;20480;-84
2022/08/02 03:35:01;;;;;;;0.00;0.00;;;12.00;99.90;;;;;;5049493;28;20944;-83
2022/08/02 03:37:31;;;;;;;0.00;0.00;;;12.00;99.90;;;;;;5046756;28;20552;-80
2022/08/02 03:39:59;;;;;;;0.00;0.00;;;12.10;99.90;;;;;;5044676;28;20787;-80
2022/08/02 03:42:28;;;;;;;0.00;0.00;;;12.10;99.90;;;;;;5045331;28;20505;-79
2022/08/02 03:44:58;;;;;;;0.00;0.00;;;12.10;99.90;;;;;;5045830;28;20470;-80
2022/08/02 03:47:30;;;;;;;0.00;0.00;;;12.20;99.90;;;;;;5046285;28;20487;-80
2022/08/02 03:50:01;;;;;;;0.00;0.00;;;12.20;99.90;;;;;;5046167;28;20480;-81
2022/08/02 03:52:29;;;;;;;0.00;0.00;;;12.30;99.90;;;;;;5044965;28;20472;-81
2022/08/02 03:54:57;;;;;;;0.00;0.00;;;12.20;99.90;;;;;;5044372;28;20444;-80
2022/08/02 03:57:26;;;;;;;0.00;0.00;;;12.30;99.90;;;;;;5044900;28;20543;-80
2022/08/02 03:59:54;;;;;;;0.00;0.00;;;12.30;99.90;;;;;;5043855;28;20481;-80
2022/08/02 04:02:22;;;;;;;0.00;0.00;;;12.30;99.90;;;;;;5043850;28;20694;-79
2022/08/02 04:04:49;;;;;;;0.00;0.00;;;12.40;99.90;;;;;;5043291;28;20445;-79
2022/08/02 04:07:18;;;;;;;0.00;0.00;;;12.40;99.90;;;;;;5042276;28;20468;-75
2022/08/02 04:10:07;;;;;;;0.00;0.00;;;12.40;99.90;;;;;;5039077;28;20459;-75
2022/08/02 04:12:35;;;;;;;0.00;0.00;;;12.40;99.90;;;;;;5029609;28;21022;-75
2022/08/02 04:15:05;;;;;;;0.00;0.00;;;12.40;99.90;;;;;;5018968;28;20456;-75
2022/08/02 04:17:36;;;;;;;0.00;0.00;;;12.40;99.90;;;;;;5018474;28;20475;-75
2022/08/02 04:20:09;;;;;;;0.00;0.00;;;12.40;99.90;;;;;;5018451;28;20964;-75
2022/08/02 04:22:44;;;;;;;0.00;0.00;;;12.40;99.90;;;;;;5018804;28;20453;-77
2022/08/02 04:25:14;;;;;;;0.00;0.00;;;12.40;99.90;;;;;;5023214;28;20538;-84
2022/08/02 04:27:46;;;;;;;0.00;0.00;;;12.40;99.90;;;;;;5025267;28;20468;-77
2022/08/02 04:30:34;;;;;;;0.00;0.00;;;12.40;99.90;;;;;;5023431;28;21073;-71
2022/08/02 04:33:02;;;;;;;0.00;0.00;;;12.40;99.90;;;;;;5018687;28;20866;-74
2022/08/02 04:35:30;;;;;;;0.00;0.00;;;12.40;99.90;;;;;;5018664;28;20533;-75
2022/08/02 04:37:59;;;;;;;0.00;0.00;;;12.40;99.90;;;;;;5019065;28;20626;-73
2022/08/02 04:40:37;;;;;;;0.00;0.00;;;12.40;99.90;;;;;;5026100;28;20444;-73
2022/08/02 04:43:05;;;;;;;0.00;0.00;;;12.40;99.90;;;;;;5029917;28;20444;-72
2022/08/02 04:45:33;;;;;;;0.00;0.00;;;12.40;99.90;;;;;;5024872;28;20482;-72
2022/08/02 04:48:01;;;;;;;0.00;0.00;;;12.40;99.90;;;;;;5030557;28;20466;-72
2022/08/02 04:50:31;;;;;;;0.00;0.00;;;12.40;99.90;;;;;;5031704;28;20465;-74
2022/08/02 04:53:01;;;;;;;0.00;0.00;;;12.40;99.90;;;;;;5036447;28;20471;-74
2022/08/02 04:55:29;;;;;;;0.00;0.00;;;12.40;99.90;;;;;;5024073;28;20532;-78
2022/08/02 04:57:57;;;;;;;0.00;0.00;;;12.40;99.90;;;;;;5028473;28;20888;-79
2022/08/02 05:00:26;;;;;;;0.00;0.00;;;12.40;99.90;;;;;;5035626;28;20473;-80
2022/08/02 05:02:55;;;;;;;0.00;0.00;;;12.40;99.90;;;;;;5032169;28;20532;-77
2022/08/02 05:05:23;;;;;;;0.00;0.00;;;12.40;99.90;;;;;;5040598;28;20521;-74
2022/08/02 05:07:51;;;;;;;0.00;0.00;;;12.50;99.90;;;;;;5036908;28;20499;-76
2022/08/02 05:10:21;;;;;;;0.00;0.00;;;12.60;99.90;;;;;;5052081;28;21127;-74
2022/08/02 05:12:49;;;;;;;0.00;0.00;;;12.60;99.90;;;;;;5033301;28;20481;-77
2022/08/02 05:15:17;;;;;;;0.00;0.00;;;12.60;99.90;;;;;;5035541;28;20444;-75
2022/08/02 05:17:47;;;;;;;0.00;0.00;;;12.60;99.90;;;;;;5034984;28;20498;-76
2022/08/02 05:20:16;;;;;;;0.00;0.00;;;12.70;99.90;;;;;;5031091;28;20502;-73
2022/08/02 05:22:45;;;;;;;0.00;0.00;;;12.70;99.90;;;;;;5036038;28;20468;-71
2022/08/02 05:25:13;;;;;;;0.00;0.00;;;12.80;99.90;;;;;;5040003;28;20522;-76
2022/08/02 05:27:42;;;;;;;0.00;0.00;;;12.80;99.90;;;;;;5021251;28;20771;-75
2022/08/02 05:30:11;;;;;;;0.00;0.00;;;12.80;99.90;;;;;;5035264;28;20448;-75
2022/08/02 05:32:47;;;;;;;0.00;0.00;;;12.90;99.90;;;;;;5023136;28;20562;-74
2022/08/02 05:35:18;;;;;;;0.00;0.00;;;12.90;99.90;;;;;;5025081;28;20486;-74
2022/08/02 05:37:46;;;;;;;0.00;0.00;;;13.00;99.90;;;;;;5031657;28;20478;-78
2022/08/02 05:40:15;;;;;;;0.00;0.00;;;13.00;99.90;;;;;;5021261;28;20465;-77
2022/08/02 05:42:44;;;;;;;0.00;0.00;;;13.00;99.90;;;;;;5023578;28;20448;-77
2022/08/02 05:45:12;;;;;;;0.00;0.00;;;13.10;99.90;;;;;;5036822;28;20549;-74
2022/08/02 05:47:40;;;;;;;0.00;0.00;;;13.20;99.90;;;;;;5020551;28;20531;-69
2022/08/02 05:50:09;;;;;;;0.00;0.00;;;13.30;99.90;;;;;;5034474;28;20539;-70
2022/08/02 05:52:46;;;;;;;0.00;0.00;;;13.40;99.90;;;;;;5030205;28;20484;-69
2022/08/02 05:55:17;;;;;;;0.00;0.00;;;13.50;99.90;;;;;;5029368;28;20872;-68
2022/08/02 05:57:53;;;;;;;0.00;0.00;;;13.60;99.90;;;;;;5018190;28;20456;-68
2022/08/02 06:00:21;;;;;;;0.00;0.00;;;13.70;99.90;;;;;;5036102;28;20646;-72
2022/08/02 06:03:15;;;;;;;0.00;0.00;;;13.80;99.90;;;;;;5037836;28;20725;-69
2022/08/02 06:05:51;;;;;;;0.00;0.00;;;13.90;99.90;;;;;;5028913;28;20584;-69
2022/08/02 06:08:21;;;;;;;0.00;0.00;;;13.90;99.90;;;;;;5019194;28;20735;-69
2022/08/02 06:10:51;;;;;;;0.00;0.00;;;14.00;99.90;;;;;;5021082;28;20494;-69
2022/08/02 06:13:21;;;;;;;0.00;0.00;;;14.10;99.90;;;;;;5021011;28;20646;-68
2022/08/02 06:15:54;;;;;;;0.00;0.00;;;14.20;99.90;;;;;;5021028;28;20443;-68
2022/08/02 06:18:22;;;;;;;0.00;0.00;;;14.30;99.90;;;;;;5022297;28;20544;-68
2022/08/02 06:20:56;;;;;;;0.00;0.00;;;14.40;99.90;;;;;;5030541;28;21099;-68
2022/08/02 06:23:26;;;;;;;0.00;0.00;;;14.50;99.90;;;;;;5026051;28;20931;-69
2022/08/02 06:25:54;;;;;;;0.00;0.00;;;14.60;99.90;;;;;;5032596;28;20448;-70
2022/08/02 06:28:24;;;;;;;0.00;0.00;;;14.70;99.90;;;;;;5028085;28;20483;-70
2022/08/02 06:30:52;;;;;;;0.00;0.00;;;14.80;99.90;;;;;;5031679;28;20452;-69
2022/08/02 06:33:20;;;;;;;0.00;0.00;;;14.90;99.90;;;;;;5032560;28;20454;-78
2022/08/02 06:35:56;;;;;;;0.00;0.00;;;15.00;99.90;;;;;;5032043;28;21089;-77
2022/08/02 06:38:32;;;;;;;0.00;0.00;;;15.10;99.90;;;;;;5049889;28;20489;-80
2022/08/02 06:41:05;;;;;;;0.00;0.00;;;15.20;99.90;;;;;;5048021;28;20441;-78
2022/08/02 06:43:50;;;;;;;0.00;0.00;;;15.20;99.90;;;;;;5032313;28;20505;-73
2022/08/02 06:46:18;;;;;;;0.00;0.00;;;15.30;99.90;;;;;;5026062;28;20606;-72
2022/08/02 06:49:06;;;;;;;0.00;0.00;;;15.30;99.90;;;;;;5022270;28;21004;-73
2022/08/02 06:51:34;;;;;;;0.00;0.00;;;15.30;99.90;;;;;;5041350;28;20444;-73
2022/08/02 06:54:02;;;;;;;0.00;0.00;;;15.30;99.90;;;;;;5031095;28;21144;-72
2022/08/02 06:56:30;;;;;;;0.00;0.00;;;15.50;99.90;;;;;;5032621;28;20532;-72
2022/08/02 06:58:59;;;;;;;0.00;0.00;;;15.70;99.90;;;;;;5028041;28;20767;-72
2022/08/02 07:01:32;;;;;;;0.00;0.00;;;15.80;99.90;;;;;;5030432;28;20514;-72
2022/08/02 07:04:06;;;;;;;0.00;0.00;;;15.90;99.90;;;;;;5026348;28;20468;-71
2022/08/02 07:06:33;;;;;;;0.00;0.00;;;16.00;99.90;;;;;;5027675;28;20445;-72
2022/08/02 07:09:01;;;;;;;0.00;0.00;;;16.00;99.90;;;;;;5029759;28;20475;-75
2022/08/02 07:11:47;;;;;;;0.00;0.00;;;16.10;99.90;;;;;;5021407;28;20449;-70
2022/08/02 07:14:17;;;;;;;0.00;0.00;;;16.20;99.90;;;;;;5022814;28;20508;-74
2022/08/02 07:16:48;;;;;;;0.00;0.00;;;16.20;99.90;;;;;;5029193;28;20447;-72
2022/08/02 07:19:16;;;;;;;0.00;0.00;;;16.30;99.90;;;;;;5035396;28;20493;-73
2022/08/02 07:21:43;;;;;;;0.00;0.00;;;16.50;99.90;;;;;;5022926;28;20444;-72
2022/08/02 07:24:24;;;;;;;0.00;0.00;;;16.50;99.90;;;;;;5020317;28;20448;-72
2022/08/02 07:26:52;;;;;;;0.00;0.00;;;16.50;99.90;;;;;;5021902;28;20459;-72
2022/08/02 07:29:41;;;;;;;0.00;0.00;;;16.60;99.90;;;;;;5036497;28;20737;-71
2022/08/02 07:32:14;;;;;;;0.00;0.00;;;16.60;99.90;;;;;;5034886;28;20458;-72
2022/08/02 07:34:42;;;;;;;0.00;0.00;;;16.60;99.90;;;;;;5029408;28;20477;-71
2022/08/02 07:37:19;;;;;;;0.00;0.00;;;16.60;99.90;;;;;;5027592;28;20475;-72
2022/08/02 07:40:08;;;;;;;0.00;0.00;;;16.70;99.90;;;;;;5028169;28;20433;-70
2022/08/02 07:42:50;;;;;;;0.00;0.00;;;16.80;99.90;;;;;;5029661;28;20962;-69
2022/08/02 07:45:20;;;;;;;0.00;0.00;;;16.90;99.90;;;;;;5029598;28;20450;-71
2022/08/02 07:47:58;;;;;;;0.00;0.00;;;16.90;99.90;;;;;;5028246;28;20457;-68
2022/08/02 07:50:32;;;;;;;0.00;0.00;;;17.00;99.90;;;;;;5028156;28;20444;-71
2022/08/02 07:53:01;;;;;;;0.00;0.00;;;16.90;99.90;;;;;;5028028;28;20475;-72
2022/08/02 07:55:28;;;;;;;0.00;0.00;;;17.00;99.90;;;;;;5029342;28;20482;-71
2022/08/02 07:58:07;;;;;;;0.00;0.00;;;17.00;99.90;;;;;;5029847;28;20459;-71
2022/08/02 08:00:42;;;;;;;0.00;0.00;;;17.10;99.90;;;;;;5029581;28;20495;-71
2022/08/02 08:03:10;;;;;;;0.00;0.00;;;17.10;99.90;;;;;;5029013;28;20491;-71
2022/08/02 08:05:38;;;;;;;0.00;0.00;;;17.20;99.90;;;;;;5029794;28;20438;-71
2022/08/02 08:08:06;;;;;;;0.00;0.00;;;17.30;99.90;;;;;;5027449;28;20496;-70
2022/08/02 08:10:44;;;;;;;0.00;0.00;;;17.40;99.90;;;;;;5027640;28;20441;-71
2022/08/02 08:13:11;;;;;;;0.00;0.00;;;17.40;99.90;;;;;;5029784;28;20451;-71
2022/08/02 08:15:41;;;;;;;0.00;0.00;;;17.40;99.90;;;;;;5029211;28;20481;-71
2022/08/02 08:18:18;;;;;;;0.00;0.00;;;17.50;99.90;;;;;;5028578;28;20454;-70
2022/08/02 08:20:46;;;;;;;0.00;0.00;;;17.60;99.90;;;;;;5027215;28;20445;-71
2022/08/02 08:23:13;;;;;;;0.00;0.00;;;17.70;99.90;;;;;;5028564;28;20486;-71
2022/08/02 08:25:41;;;;;;;0.00;0.00;;;17.80;99.90;;;;;;5029034;28;20442;-71
2022/08/02 08:28:09;;;;;;;0.00;0.00;;;17.90;99.90;;;;;;5029068;28;20764;-70
2022/08/02 08:30:39;;;;;;;0.00;0.00;;;17.90;99.90;;;;;;5022044;28;20536;-70
2022/08/02 08:33:09;;;;;;;0.00;0.00;;;18.00;99.90;;;;;;5030466;28;20450;-69
2022/08/02 08:35:37;;;;;;;0.00;0.00;;;18.00;99.90;;;;;;5028747;28;20764;-71
2022/08/02 08:38:05;;;;;;;0.00;0.00;;;18.00;99.90;;;;;;5027572;28;20471;-70
2022/08/02 08:40:35;;;;;;;0.00;0.00;;;18.10;99.90;;;;;;5028179;28;21052;-70
2022/08/02 08:43:04;;;;;;;0.00;0.00;;;18.20;99.90;;;;;;5035515;28;20728;-71
2022/08/02 08:45:32;;;;;;;0.00;0.00;;;18.20;99.90;;;;;;5036072;28;20509;-70
2022/08/02 08:48:01;;;;;;;0.00;0.00;;;18.30;99.90;;;;;;5032862;28;20807;-70
2022/08/02 08:50:32;;;;;;;0.00;0.00;;;18.30;99.90;;;;;;5027199;28;20835;-70
2022/08/02 08:53:03;;;;;;;0.00;0.00;;;18.30;99.90;;;;;;5027464;28;20701;-70
2022/08/02 08:55:32;;;;;;;0.00;0.00;;;18.30;99.90;;;;;;5027443;28;20716;-70
2022/08/02 08:58:01;;;;;;;0.00;0.00;;;18.40;99.90;;;;;;5026289;28;20471;-70
2022/08/02 09:00:30;;;;;;;0.00;0.00;;;18.40;99.90;;;;;;5026577;28;20443;-70
2022/08/02 09:03:01;;;;;;;0.00;0.00;;;18.60;99.90;;;;;;5026653;28;21029;-70
2022/08/02 09:05:31;;;;;;;0.00;0.00;;;18.70;99.90;;;;;;5026720;28;21102;-70
2022/08/02 09:08:00;;;;;;;0.00;0.00;;;18.70;99.90;;;;;;5026730;28;20484;-71
2022/08/02 09:10:36;;;;;;;0.00;0.00;;;18.90;99.90;;;;;;5026607;28;20483;-71
2022/08/02 09:13:14;;;;;;;0.00;0.00;;;18.80;99.90;;;;;;5026638;28;20437;-70
2022/08/02 09:16:05;;;;;;;0.00;0.00;;;19.00;99.90;;;;;;5028141;28;20470;-70
2022/08/02 09:18:43;;;;;;;0.00;0.00;;;19.10;99.90;;;;;;5025585;28;20486;-70
2022/08/02 09:21:15;;;;;;;0.00;0.00;;;19.10;99.90;;;;;;5017761;28;20996;-71
2022/08/02 09:23:45;;;;;;;0.00;0.00;;;19.10;99.90;;;;;;5017545;28;20466;-72
2022/08/02 09:26:17;;;;;;;0.00;0.00;;;19.20;99.90;;;;;;5018115;28;20429;-70
2022/08/02 09:28:48;;;;;;;0.00;0.00;;;19.40;99.90;;;;;;5017638;28;20536;-69
2022/08/02 09:31:19;;;;;;;0.00;0.00;;;19.50;99.90;;;;;;5016727;28;20928;-69
2022/08/02 09:33:53;;;;;;;0.00;0.00;;;19.50;99.90;;;;;;5016566;28;20974;-70
2022/08/02 09:36:23;;;;;;;0.00;0.00;;;19.50;99.90;;;;;;5016926;28;20878;-70
2022/08/02 09:38:56;;;;;;;0.00;0.00;;;19.60;99.90;;;;;;5018488;28;20839;-71
2022/08/02 09:41:25;;;;;;;0.00;0.00;;;19.50;99.90;;;;;;5021133;28;20467;-71
2022/08/02 09:43:55;;;;;;;0.00;0.00;;;19.60;99.90;;;;;;5020831;28;20840;-71
2022/08/02 09:46:36;;;;;;;0.00;0.00;;;19.70;99.90;;;;;;5020791;28;20577;-70
2022/08/02 09:49:06;;;;;;;0.00;0.00;;;19.80;99.90;;;;;;5023327;28;21067;-69
2022/08/02 09:51:38;;;;;;;0.00;0.00;;;19.90;99.90;;;;;;5021463;28;20463;-70
2022/08/02 09:54:07;;;;;;;0.00;0.00;;;20.00;99.90;;;;;;5021544;28;20852;-71
2022/08/02 09:56:44;;;;;;;0.00;0.00;;;20.10;99.90;;;;;;5021957;28;21013;-70
2022/08/02 09:59:13;;;;;;;0.00;0.00;;;20.20;99.90;;;;;;5022101;28;20712;-70
2022/08/02 10:01:42;;;;;;;0.00;0.00;;;20.30;99.90;;;;;;5021888;28;20543;-71
2022/08/02 10:04:28;;;;;;;0.00;0.00;;;20.20;99.90;;;;;;5021724;28;20883;-74
2022/08/02 10:07:02;;;;;;;0.00;0.00;;;20.30;99.90;;;;;;5021229;28;20455;-73
2022/08/02 10:09:30;;;;;;;0.00;0.00;;;20.30;99.90;;;;;;5021238;28;20893;-74
2022/08/02 10:11:59;;;;;;;0.00;0.00;;;20.40;99.90;;;;;;5024399;28;20522;-74
2022/08/02 10:14:28;;;;;;;0.00;0.00;;;20.50;99.90;;;;;;5020838;28;20832;-74
2022/08/02 10:16:57;;;;;;;0.00;0.00;;;20.60;99.90;;;;;;5021087;28;20477;-74
2022/08/02 10:19:25;;;;;;;0.00;0.00;;;20.70;99.90;;;;;;5021204;28;20441;-74
2022/08/02 10:22:16;;;;;;;0.00;0.00;;;20.80;99.90;;;;;;5020621;28;20754;-74
2022/08/02 10:24:47;;;;;;;0.00;0.00;;;20.80;99.90;;;;;;5021024;28;20824;-73
2022/08/02 10:27:18;;;;;;;0.00;0.00;;;20.90;99.90;;;;;;5021452;28;20453;-73
2022/08/02 10:29:48;;;;;;;0.00;0.00;;;21.00;99.90;;;;;;5021582;28;20433;-73
2022/08/02 10:32:26;;;;;;;0.00;0.00;;;21.00;99.90;;;;;;5021380;28;20441;-73
2022/08/02 10:34:58;;;;;;;0.00;0.00;;;21.10;99.90;;;;;;5021332;28;20433;-73
2022/08/02 10:37:49;;;;;;;0.00;0.00;;;21.20;99.90;;;;;;5021728;28;20453;-74
2022/08/02 10:40:25;;;;;;;0.00;0.00;;;21.30;99.90;;;;;;5020578;28;20718;-73
2022/08/02 10:42:54;;;;;;;0.00;0.00;;;21.30;99.90;;;;;;5020713;28;20730;-73
2022/08/02 10:45:22;;;;;;;0.00;0.00;;;21.40;99.90;;;;;;5021331;28;21126;-73
2022/08/02 10:48:02;;;;;;;0.00;0.00;;;21.50;99.90;;;;;;5022412;28;20882;-74
2022/08/02 10:51:02;;;;;;;0.00;0.00;;;21.60;99.90;;;;;;5023019;28;20482;-74
2022/08/02 10:53:33;;;;;;;0.00;0.00;;;21.70;99.90;;;;;;4991203;28;20719;-74
2022/08/02 10:56:03;;;;;;;0.00;0.00;;;21.70;99.90;;;;;;5023566;28;20475;-74
2022/08/02 10:58:32;;;;;;;0.00;0.00;;;21.80;99.90;;;;;;5024197;28;20486;-74
2022/08/02 11:01:05;;;;;;;0.00;0.00;;;21.80;99.90;;;;;;5024666;28;20825;-74
2022/08/02 11:03:44;;;;;;;0.00;0.00;;;21.80;99.90;;;;;;5026153;28;20447;-74
2022/08/02 11:06:14;;;;;;;0.00;0.00;;;21.80;99.90;;;;;;5021284;28;20824;-73
2022/08/02 11:09:29;;;;;;;0.00;0.00;;;21.80;99.90;;;;;;5020838;28;20790;-76
2022/08/02 11:12:03;;;;;;;0.00;0.00;;;21.80;99.90;;;;;;5020542;28;20442;-72
2022/08/02 11:14:32;;;;;;;0.00;0.00;;;21.90;99.90;;;;;;5019889;28;20458;-71
2022/08/02 11:17:08;;;;;;;0.00;0.00;;;22.00;99.90;;;;;;5020310;28;20714;-71
2022/08/02 11:20:16;;;;;;;0.00;0.00;;;22.20;99.90;;;;;;5023386;28;20450;-68
2022/08/02 11:22:46;;;;;;;0.00;0.00;;;22.40;99.90;;;;;;5024024;28;21009;-70
2022/08/02 11:25:34;;;;;;;0.00;0.00;;;22.60;99.90;;;;;;5029113;28;20514;-70
2022/08/02 11:28:23;;;;;;;0.00;0.00;;;22.60;99.90;;;;;;5039854;28;20458;-71
2022/08/02 11:30:59;;;;;;;0.00;0.00;;;22.70;99.90;;;;;;5040196;28;20642;-70
2022/08/02 11:33:32;;;;;;;0.00;0.00;;;22.80;99.90;;;;;;5031539;28;20444;-72
2022/08/02 11:36:05;;;;;;;0.00;0.00;;;23.00;99.90;;;;;;5024019;28;20455;-74
2022/08/02 11:38:33;;;;;;;0.00;0.00;;;23.10;99.90;;;;;;5039814;28;20553;-75
2022/08/02 11:41:04;;;;;;;0.00;0.00;;;23.20;99.90;;;;;;5039216;28;20998;-74
2022/08/02 11:43:38;;;;;;;0.00;0.00;;;23.30;99.90;;;;;;5045420;28;20468;-82
2022/08/02 11:46:13;;;;;;;0.00;0.00;;;23.40;99.90;;;;;;5033905;28;21092;-78
2022/08/02 11:48:43;;;;;;;0.00;0.00;;;23.60;99.90;;;;;;5034485;28;20489;-71
2022/08/02 11:51:13;;;;;;;0.00;0.00;;;23.70;99.90;;;;;;5029905;28;20790;-72
2022/08/02 11:53:43;;;;;;;0.00;0.00;;;23.90;99.90;;;;;;5038102;28;20550;-70
2022/08/02 11:56:14;;;;;;;0.00;0.00;;;23.90;99.90;;;;;;5026010;28;20503;-70
2022/08/02 11:59:02;;;;;;;0.00;0.00;;;24.10;99.90;;;;;;5020330;28;20593;-72
2022/08/02 12:01:31;;;;;;;0.00;0.00;;;24.20;99.90;;;;;;5024569;28;20456;-71
2022/08/02 12:04:08;;;;;;;0.00;0.00;;;24.40;99.90;;;;;;5030793;28;20455;-71
2022/08/02 12:06:36;;;;;;;0.00;0.00;;;24.50;99.90;;;;;;5031772;28;20454;-71
2022/08/02 12:09:06;;;;;;;0.00;0.00;;;24.50;99.90;;;;;;5028322;28;20471;-71
2022/08/02 12:11:48;;;;;;;0.00;0.00;;;24.50;99.90;;;;;;5036948;28;20455;-69
2022/08/02 12:14:16;;;;;;;0.00;0.00;;;24.60;99.90;;;;;;5029249;28;20437;-69
2022/08/02 12:19:30;;;;;;;0.00;0.00;;;24.60;99.90;;;;;;5021623;28;20475;-68
2022/08/02 12:22:13;;;;;;;0.00;0.00;;;24.60;99.90;;;;;;5025449;28;20510;-70
2022/08/02 12:24:44;;;;;;;0.00;0.00;;;24.70;99.90;;;;;;5030204;28;20461;-68
2022/08/02 12:30:09;;;;;;;0.00;0.00;;;24.70;99.70;;;;;;5000130;28;20677;-68
2022/08/02 12:32:37;;;;;;;0.00;0.00;;;24.80;99.90;;;;;;5003684;28;20464;-69
2022/08/02 12:35:11;;;;;;;0.00;0.00;;;25.00;99.80;;;;;;5007659;28;20463;-69
2022/08/02 12:37:40;;;;;;;0.00;0.00;;;25.00;99.70;;;;;;4997003;28;20484;-73
2022/08/02 12:40:22;;;;;;;0.00;0.00;;;25.10;99.50;;;;;;5010247;28;20477;-66
2022/08/02 12:42:55;;;;;;;0.00;0.00;;;25.00;99.10;;;;;;5008061;28;20507;-67
2022/08/02 12:45:25;;;;;;;0.00;0.00;;;25.10;99.20;;;;;;5000062;28;20813;-68
2022/08/02 12:48:06;;;;;;;0.00;0.00;;;25.20;99.60;;;;;;5012633;28;20488;-70
2022/08/02 12:50:36;;;;;;;0.00;0.00;;;25.20;99.90;;;;;;5000508;28;21127;-69
2022/08/02 12:53:06;;;;;;;0.00;0.00;;;25.20;99.60;;;;;;4998647;28;20949;-69
2022/08/02 12:55:37;;;;;;;0.00;0.00;;;25.30;99.60;;;;;;5004996;28;20997;-70
2022/08/02 12:58:25;;;;;;;0.00;0.00;;;25.30;99.20;;;;;;4995031;28;20466;-70
2022/08/02 13:00:57;;;;;;;0.00;0.00;;;25.30;99.30;;;;;;4995941;28;20943;-67
2022/08/02 13:03:26;;;;;;;0.00;0.00;;;25.30;99.20;;;;;;4998939;28;20452;-69
2022/08/02 13:06:16;;;;;;;0.00;0.00;;;25.30;99.50;;;;;;5003051;27;20446;-69
2022/08/02 13:09:12;;;;;;;0.00;0.00;;;25.30;99.10;;;;;;4994814;28;20588;-69
2022/08/02 13:11:40;;;;;;;0.00;0.00;;;25.20;98.70;;;;;;4999315;27;20491;-68
2022/08/02 13:14:11;;;;;;;0.00;0.00;;;25.10;99.20;;;;;;4992861;28;20921;-69
2022/08/02 13:16:41;;;;;;;0.00;0.00;;;25.30;99.40;;;;;;5002250;28;20488;-68
2022/08/02 13:19:09;;;;;;;0.00;0.00;;;25.40;99.20;;;;;;4991765;28;20477;-71
2022/08/02 13:21:37;;;;;;;0.00;0.00;;;25.60;99.30;;;;;;4993953;28;20460;-70
2022/08/02 13:24:25;;;;;;;0.00;0.00;;;25.70;99.20;;;;;;5000449;28;20553;-70
2022/08/02 13:27:12;;;;;;;0.00;0.00;;;25.90;99.30;;;;;;4992992;28;20493;-69
2022/08/02 13:29:40;;;;;;;0.00;0.00;;;26.00;99.20;;;;;;4992089;28;20478;-68